Terminal Aerodrome Forecast
Issued by NWS Green Bay, WI

Home | Current Version | Previous Version | Graphics & Text | Print | Product List | Glossary On
Versions: 1 2 3 4 5 6 7 8 9 10 11 12 13 14 15 16 17 18 19 20 21 22 23 24 25 26 27
000
FTUS43 KGRB 121700
TAFGRB
TAF
KGRB 121738Z 1218/1318 18005KT P6SM OVC250
     FM122100 23006KT P6SM VCSH SCT025 BKN070
      TEMPO 1223/1303 4SM TSRA OVC020CB
     FM130800 27006KT P6SM SCT015 BKN110
     FM131300 28012KT P6SM SCT100=

USA.gov is the U.S. government's official web portal to all federal, state and local government web resources and services.